Time;durP1;ratioP1;P1;durP2;ratioP2;P2;SDS_P1;SDS_P2;PMS_P1;PMS_P2;Temp;Humidity;BMP_temperature;BMP_pressure;BME280_temperature;BME280_humidity;BME280_pressure;Samples;Min_cycle;Max_cycle;Signal;HPM_P1;HPM_P2
2021/12/26 00:02:13;;;;;;;11.33;6.35;;;;;;;-0.18;47.24;98784.88;1737754;81;21458;-61
2021/12/26 00:04:41;;;;;;;11.15;6.72;;;;;;;-0.22;47.24;98786.55;1736192;82;21003;-60
2021/12/26 00:07:08;;;;;;;16.57;8.33;;;;;;;-0.21;47.18;98785.11;1760088;80;35955;-62
2021/12/26 00:09:34;;;;;;;15.80;8.25;;;;;;;-0.22;47.26;98785.25;1735837;81;21092;-60
2021/12/26 00:12:01;;;;;;;15.83;8.43;;;;;;;-0.24;47.45;98791.91;1742358;82;21137;-61
2021/12/26 00:14:27;;;;;;;16.15;9.40;;;;;;;-0.27;47.39;98792.62;1736538;82;21021;-60
2021/12/26 00:16:53;;;;;;;18.55;8.75;;;;;;;-0.29;47.48;98795.37;1724412;81;21687;-62
2021/12/26 00:19:20;;;;;;;15.45;7.95;;;;;;;-0.29;47.52;98801.06;1767335;80;21514;-59
2021/12/26 00:21:48;;;;;;;14.73;8.33;;;;;;;-0.23;47.54;98800.56;1741829;81;21161;-59
2021/12/26 00:24:16;;;;;;;13.75;6.72;;;;;;;-0.17;47.45;98798.79;1735158;81;20883;-61
2021/12/26 00:26:42;;;;;;;11.20;6.67;;;;;;;-0.17;47.45;98802.24;1789906;78;21823;-59
2021/12/26 00:29:10;;;;;;;11.53;6.17;;;;;;;-0.19;47.39;98797.61;1805828;79;20982;-57
2021/12/26 00:31:37;;;;;;;10.45;6.37;;;;;;;-0.21;47.40;98799.49;1804968;78;20979;-62
2021/12/26 00:34:04;;;;;;;13.48;6.90;;;;;;;-0.17;47.34;98789.17;1803147;78;21146;-59
2021/12/26 00:36:31;;;;;;;11.30;6.62;;;;;;;-0.19;47.42;98791.08;1805248;78;20976;-60
2021/12/26 00:38:58;;;;;;;14.00;6.62;;;;;;;-0.23;47.46;98794.03;1796030;78;21007;-59
2021/12/26 00:41:24;;;;;;;11.65;7.10;;;;;;;-0.19;47.47;98796.31;1801838;78;20899;-60
2021/12/26 00:43:52;;;;;;;11.85;6.40;;;;;;;-0.20;47.53;98799.86;1795105;78;20938;-61
2021/12/26 00:46:18;;;;;;;8.60;5.37;;;;;;;-0.15;47.47;98796.41;1795338;78;21800;-59
2021/12/26 00:48:45;;;;;;;8.93;5.60;;;;;;;-0.15;47.41;98799.03;1802160;79;20883;-59
2021/12/26 00:51:12;;;;;;;10.55;6.42;;;;;;;-0.11;47.41;98805.70;1804308;78;20934;-59
2021/12/26 00:53:39;;;;;;;10.45;5.90;;;;;;;-0.13;47.39;98795.81;1801588;79;21009;-61
2021/12/26 00:56:05;;;;;;;12.43;5.65;;;;;;;-0.16;47.44;98795.23;1802646;78;20915;-60
2021/12/26 00:58:32;;;;;;;10.00;6.47;;;;;;;-0.14;47.37;98792.86;1756861;80;21150;-60
2021/12/26 01:00:58;;;;;;;11.48;6.55;;;;;;;-0.11;47.34;98800.47;1743189;80;21522;-62
2021/12/26 01:03:25;;;;;;;8.93;5.97;;;;;;;-0.07;47.28;98797.95;1753115;81;20988;-62
2021/12/26 01:05:54;;;;;;;11.40;6.12;;;;;;;-0.04;47.19;98802.95;1771533;80;21034;-59
2021/12/26 01:08:26;;;;;;;10.43;5.80;;;;;;;-0.05;47.12;98799.97;1797793;78;20985;-58
2021/12/26 01:10:59;;;;;;;12.10;6.83;;;;;;;-0.09;47.17;98799.03;1807040;78;21130;-58
2021/12/26 01:13:35;;;;;;;12.68;6.65;;;;;;;-0.08;47.12;98801.51;1801124;79;20962;-59
2021/12/26 01:16:09;;;;;;;8.90;5.58;;;;;;;-0.03;47.00;98798.05;1796626;78;20859;-62
2021/12/26 01:18:44;;;;;;;9.28;5.58;;;;;;;-0.10;46.92;98790.81;1769082;80;21414;-61
2021/12/26 01:21:19;;;;;;;13.40;5.78;;;;;;;-0.18;47.07;98786.66;1754550;80;21505;-63
2021/12/26 01:23:54;;;;;;;12.40;6.25;;;;;;;-0.20;47.08;98783.34;1757157;81;21143;-58
2021/12/26 01:26:20;;;;;;;10.03;5.62;;;;;;;-0.23;46.94;98784.41;1712584;82;20987;-60
2021/12/26 01:28:47;;;;;;;9.85;5.42;;;;;;;-0.29;47.01;98786.22;1757554;81;21005;-60
2021/12/26 01:31:21;;;;;;;15.13;7.17;;;;;;;-0.33;47.06;98787.39;1739675;81;20913;-61
2021/12/26 01:33:54;;;;;;;12.63;6.58;;;;;;;-0.40;47.18;98788.82;1766056;81;20987;-58
2021/12/26 01:36:29;;;;;;;12.13;6.30;;;;;;;-0.46;47.34;98780.61;1749490;81;21218;-62
2021/12/26 01:39:02;;;;;;;11.30;6.45;;;;;;;-0.42;47.36;98785.50;1766377;81;20935;-60
2021/12/26 01:41:31;;;;;;;13.35;6.50;;;;;;;-0.39;47.35;98774.78;1729305;82;21093;-61
2021/12/26 01:44:04;;;;;;;11.97;6.65;;;;;;;-0.29;47.31;98780.15;1749168;81;20919;-62
2021/12/26 01:46:32;;;;;;;8.95;5.47;;;;;;;-0.28;47.22;98781.80;1760320;81;20858;-60
2021/12/26 01:49:15;;;;;;;12.88;7.15;;;;;;;-0.31;47.22;98784.17;1758632;81;21808;-59
2021/12/26 01:51:43;;;;;;;15.23;7.15;;;;;;;-0.38;47.26;98781.69;1735777;80;20900;-61
2021/12/26 01:54:10;;;;;;;10.80;6.20;;;;;;;-0.42;47.30;98782.05;1743930;81;20994;-62
2021/12/26 01:56:38;;;;;;;14.25;7.17;;;;;;;-0.41;47.37;98782.39;1760990;81;20949;-63
2021/12/26 01:59:06;;;;;;;11.68;6.95;;;;;;;-0.39;47.33;98781.31;1759797;81;20919;-61
2021/12/26 02:01:43;;;;;;;12.55;6.50;;;;;;;-0.46;47.18;98779.30;1753676;81;21169;-60
2021/12/26 02:04:09;;;;;;;9.70;6.17;;;;;;;-0.59;47.23;98774.19;1730679;81;21673;-62
2021/12/26 02:06:37;;;;;;;11.90;6.53;;;;;;;-0.67;47.34;98784.39;1743697;81;21413;-62
2021/12/26 02:09:03;;;;;;;10.88;5.35;;;;;;;-0.71;47.48;98789.03;1734696;81;21007;-62
2021/12/26 02:11:31;;;;;;;11.00;5.85;;;;;;;-0.73;47.55;98791.41;1701608;81;20998;-62
2021/12/26 02:13:58;;;;;;;11.55;6.17;;;;;;;-0.75;47.64;98792.81;1741297;81;21236;-58
2021/12/26 02:16:27;;;;;;;9.70;5.50;;;;;;;-0.72;47.68;98796.50;1746967;81;21029;-61
2021/12/26 02:18:54;;;;;;;11.50;5.87;;;;;;;-0.71;47.76;98795.56;1746417;81;21461;-60
2021/12/26 02:21:48;;;;;;;10.58;6.47;;;;;;;-0.68;47.76;98795.31;1741344;81;20993;-62
2021/12/26 02:24:27;;;;;;;12.58;5.75;;;;;;;-0.65;47.69;98791.63;1748967;81;21026;-60
2021/12/26 02:29:30;;;;;;;12.53;5.50;;;;;;;-0.63;47.86;98797.09;1729958;81;21540;-63
2021/12/26 02:31:57;;;;;;;12.37;6.83;;;;;;;-0.62;47.92;98803.16;1743190;81;20989;-63
2021/12/26 02:34:23;;;;;;;10.80;5.87;;;;;;;-0.63;47.92;98797.59;1736932;81;20990;-61
2021/12/26 02:36:50;;;;;;;11.10;6.20;;;;;;;-0.64;47.85;98795.45;1800806;78;20978;-59
2021/12/26 02:39:16;;;;;;;9.93;6.05;;;;;;;-0.65;47.92;98802.08;1793630;78;21492;-59
2021/12/26 02:41:43;;;;;;;9.78;5.45;;;;;;;-0.60;47.80;98801.75;1763187;80;20982;-59
2021/12/26 02:44:10;;;;;;;9.00;4.58;;;;;;;-0.63;47.81;98806.23;1771456;80;20986;-59
2021/12/26 02:46:37;;;;;;;9.95;4.83;;;;;;;-0.62;47.83;98806.61;1767879;80;20998;-62
2021/12/26 02:49:04;;;;;;;9.60;4.87;;;;;;;-0.59;47.84;98805.55;1814039;78;21509;-62
2021/12/26 02:51:31;;;;;;;7.87;4.85;;;;;;;-0.57;47.83;98804.14;1802926;79;21563;-59
2021/12/26 02:53:57;;;;;;;8.53;5.22;;;;;;;-0.55;47.85;98794.39;1814058;78;20964;-61
2021/12/26 02:56:24;;;;;;;7.42;4.37;;;;;;;-0.59;47.94;98802.09;1789234;78;20899;-58
2021/12/26 02:58:51;;;;;;;10.18;5.95;;;;;;;-0.58;47.99;98804.61;1805781;78;20987;-61
2021/12/26 03:01:21;;;;;;;9.60;5.30;;;;;;;-0.54;47.93;98800.80;1805522;78;21042;-60
2021/12/26 03:03:48;;;;;;;8.15;4.40;;;;;;;-0.49;47.95;98802.58;1813043;78;21810;-59
2021/12/26 03:06:22;;;;;;;10.32;6.08;;;;;;;-0.48;47.82;98803.42;1808958;78;20922;-59
2021/12/26 03:08:43;;;;;;;10.58;6.47;;;;;;;-0.53;47.92;98810.78;1796183;79;21593;-60
2021/12/26 03:11:10;;;;;;;9.78;5.42;;;;;;;-0.46;47.92;98806.27;1815163;78;20903;-59
2021/12/26 03:13:36;;;;;;;9.40;5.55;;;;;;;-0.40;47.84;98814.12;1803491;79;20941;-62
2021/12/26 03:16:04;;;;;;;9.85;5.30;;;;;;;-0.37;47.68;98814.73;1808962;78;21488;-61
2021/12/26 03:18:30;;;;;;;10.25;6.37;;;;;;;-0.36;47.54;98818.98;1759524;80;20923;-62
2021/12/26 03:20:57;;;;;;;8.13;5.30;;;;;;;-0.41;47.64;98820.28;1770471;80;20995;-62
2021/12/26 03:23:25;;;;;;;10.50;5.17;;;;;;;-0.44;47.70;98822.66;1764034;80;20903;-63
2021/12/26 03:25:58;;;;;;;10.95;5.70;;;;;;;-0.45;47.61;98823.62;1801283;78;20923;-60
2021/12/26 03:28:26;;;;;;;10.40;6.10;;;;;;;-0.45;47.55;98821.02;1792807;79;21093;-61
2021/12/26 03:30:53;;;;;;;10.13;5.90;;;;;;;-0.50;47.51;98816.61;1797458;78;21065;-62
2021/12/26 03:33:22;;;;;;;12.15;5.75;;;;;;;-0.52;47.48;98828.94;1810107;79;21484;-63
2021/12/26 03:35:49;;;;;;;10.40;5.92;;;;;;;-0.55;47.50;98822.66;1810087;78;21092;-58
2021/12/26 03:38:16;;;;;;;11.88;6.05;;;;;;;-0.53;47.52;98822.53;1793594;78;20974;-59
2021/12/26 03:40:50;;;;;;;11.22;7.00;;;;;;;-0.52;47.39;98832.86;1810535;79;21141;-61
2021/12/26 03:43:16;;;;;;;11.68;6.90;;;;;;;-0.53;47.32;98832.98;1805605;78;20977;-60
2021/12/26 03:45:44;;;;;;;8.75;5.42;;;;;;;-0.57;47.36;98827.16;1811619;79;20897;-63
2021/12/26 03:48:12;;;;;;;11.15;6.08;;;;;;;-0.54;47.39;98826.92;1807879;79;20934;-61
2021/12/26 03:50:40;;;;;;;9.70;6.17;;;;;;;-0.53;47.27;98830.38;1801316;78;22301;-60
2021/12/26 03:53:08;;;;;;;8.60;6.03;;;;;;;-0.57;47.32;98831.07;1759014;80;21159;-60
2021/12/26 03:55:35;;;;;;;11.30;5.70;;;;;;;-0.60;47.33;98830.02;1775181;80;20848;-58
2021/12/26 03:58:02;;;;;;;10.00;5.75;;;;;;;-0.61;47.46;98825.73;1770885;80;21506;-59
2021/12/26 04:00:29;;;;;;;9.60;5.85;;;;;;;-0.55;47.44;98829.67;1772945;80;21000;-58
2021/12/26 04:02:56;;;;;;;9.55;6.10;;;;;;;-0.53;47.32;98827.30;1774813;80;21402;-58
2021/12/26 04:05:23;;;;;;;11.75;6.17;;;;;;;-0.55;47.43;98825.28;1812350;78;21391;-60
2021/12/26 04:07:50;;;;;;;10.30;5.40;;;;;;;-0.60;47.40;98820.88;1800759;78;20879;-60
2021/12/26 04:10:20;;;;;;;11.83;6.42;;;;;;;-0.65;47.34;98826.89;1799172;79;20986;-59
2021/12/26 04:12:51;;;;;;;11.10;5.78;;;;;;;-0.67;47.30;98832.72;1806027;78;20976;-62
2021/12/26 04:15:20;;;;;;;9.63;6.17;;;;;;;-0.69;47.36;98832.84;1811907;78;20962;-60
2021/12/26 04:17:51;;;;;;;11.22;5.97;;;;;;;-0.75;47.36;98829.84;1800407;79;21334;-60
2021/12/26 04:20:18;;;;;;;10.75;6.92;;;;;;;-0.78;47.44;98824.84;1790790;79;21453;-60
2021/12/26 04:22:44;;;;;;;10.13;7.20;;;;;;;-0.79;47.54;98829.27;1786326;79;20936;-61
2021/12/26 04:25:11;;;;;;;11.50;8.15;;;;;;;-0.80;47.56;98830.20;1795541;79;21481;-63
2021/12/26 04:27:37;;;;;;;11.18;6.97;;;;;;;-0.78;47.60;98827.46;1785492;79;20946;-59
2021/12/26 04:30:10;;;;;;;18.15;7.60;;;;;;;-0.78;47.53;98832.69;1783618;79;21148;-60
2021/12/26 04:32:37;;;;;;;15.18;6.97;;;;;;;-0.81;47.60;98831.63;1794499;79;20859;-58
2021/12/26 04:35:04;;;;;;;12.18;7.10;;;;;;;-0.83;47.68;98833.03;1799362;79;20880;-60
2021/12/26 04:37:31;;;;;;;14.10;7.35;;;;;;;-0.82;47.69;98828.65;1790762;79;20971;-61
2021/12/26 04:39:57;;;;;;;13.88;6.80;;;;;;;-0.89;47.71;98837.43;1798361;79;21064;-58
2021/12/26 04:42:25;;;;;;;11.95;7.47;;;;;;;-0.95;47.74;98834.42;1796161;79;21134;-61
2021/12/26 04:44:53;;;;;;;15.88;6.85;;;;;;;-0.98;47.83;98839.88;1762115;79;20984;-59
2021/12/26 04:47:26;;;;;;;12.90;7.30;;;;;;;-0.98;47.84;98838.10;1795534;79;21462;-59
2021/12/26 04:49:52;;;;;;;13.15;6.60;;;;;;;-1.00;47.86;98833.47;1794544;79;20963;-59
2021/12/26 04:52:18;;;;;;;15.83;7.90;;;;;;;-1.03;47.87;98835.00;1783133;79;21052;-62
2021/12/26 04:54:45;;;;;;;17.52;8.75;;;;;;;-1.03;47.83;98845.91;1787045;79;21115;-60
2021/12/26 04:57:11;;;;;;;13.30;8.10;;;;;;;-1.05;47.87;98846.50;1795285;79;20974;-61
2021/12/26 04:59:37;;;;;;;11.97;7.30;;;;;;;-1.09;47.97;98850.27;1797351;79;21070;-59
2021/12/26 05:02:07;;;;;;;11.18;7.25;;;;;;;-1.13;48.03;98853.59;1791554;79;21489;-62
2021/12/26 05:04:35;;;;;;;13.80;7.87;;;;;;;-1.12;48.10;98850.02;1794436;79;20914;-61
2021/12/26 05:07:03;;;;;;;11.20;7.25;;;;;;;-1.11;48.17;98845.64;1800380;79;21214;-59
2021/12/26 05:09:31;;;;;;;10.65;6.72;;;;;;;-1.14;48.18;98856.30;1801304;79;20939;-62
2021/12/26 05:11:58;;;;;;;12.68;7.92;;;;;;;-1.12;48.16;98850.02;1793387;79;21022;-61
2021/12/26 05:14:25;;;;;;;15.28;8.78;;;;;;;-1.11;48.18;98845.17;1788175;79;20903;-59
2021/12/26 05:16:51;;;;;;;13.05;7.40;;;;;;;-1.14;48.22;98845.39;1761544;81;21509;-63
2021/12/26 05:19:18;;;;;;;15.00;8.38;;;;;;;-1.14;48.37;98852.38;1766589;80;21961;-61
2021/12/26 05:21:45;;;;;;;13.28;8.08;;;;;;;-1.17;48.38;98857.36;1794252;78;20917;-60
2021/12/26 05:24:11;;;;;;;11.73;7.00;;;;;;;-1.16;48.31;98859.50;1805879;78;20887;-61
2021/12/26 05:26:38;;;;;;;12.50;7.90;;;;;;;-1.18;48.21;98855.71;1794647;78;20973;-59
2021/12/26 05:29:06;;;;;;;13.88;8.28;;;;;;;-1.20;48.32;98860.22;1789292;79;20879;-59
2021/12/26 05:31:33;;;;;;;14.10;9.65;;;;;;;-1.21;48.21;98865.06;1805585;78;21142;-59
2021/12/26 05:33:59;;;;;;;14.63;9.58;;;;;;;-1.25;48.23;98869.66;1801972;79;20968;-57
2021/12/26 05:36:26;;;;;;;14.87;8.35;;;;;;;-1.29;48.30;98873.45;1803027;78;21438;-61
2021/12/26 05:38:54;;;;;;;20.40;8.63;;;;;;;-1.27;48.31;98871.56;1777206;80;20994;-60
2021/12/26 05:41:21;;;;;;;14.07;7.90;;;;;;;-1.21;48.22;98874.67;1802020;78;21323;-59
2021/12/26 05:43:49;;;;;;;12.45;7.83;;;;;;;-1.25;48.34;98877.49;1799638;78;22235;-60
2021/12/26 05:46:16;;;;;;;12.65;7.55;;;;;;;-1.19;48.25;98880.60;1787882;78;20905;-58
2021/12/26 05:48:43;;;;;;;16.07;8.08;;;;;;;-1.19;48.19;98891.04;1801015;79;20887;-59
2021/12/26 05:51:11;;;;;;;18.27;9.33;;;;;;;-1.13;48.15;98885.39;1788384;78;20940;-60
2021/12/26 05:53:52;;;;;;;22.13;10.63;;;;;;;-1.14;48.09;98888.92;1792035;78;21520;-60
2021/12/26 05:56:19;;;;;;;16.90;10.50;;;;;;;-1.15;48.16;98893.34;1806785;78;21151;-61
2021/12/26 05:58:47;;;;;;;20.92;9.63;;;;;;;-1.13;48.22;98895.83;1801645;78;21454;-58
2021/12/26 06:01:14;;;;;;;14.75;8.50;;;;;;;-1.11;48.31;98888.25;1791083;79;21024;-61
2021/12/26 06:03:41;;;;;;;12.55;6.53;;;;;;;-1.07;48.38;98893.59;1805452;78;21010;-59
2021/12/26 06:06:07;;;;;;;12.45;7.33;;;;;;;-1.02;48.33;98896.73;1786304;79;20852;-60
2021/12/26 06:08:36;;;;;;;12.25;7.10;;;;;;;-0.97;48.24;98901.14;1786657;78;21257;-59
2021/12/26 06:11:03;;;;;;;14.68;8.05;;;;;;;-0.95;48.23;98901.85;1797077;79;20906;-62
2021/12/26 06:13:32;;;;;;;11.45;7.17;;;;;;;-0.89;48.13;98901.88;1804583;78;20974;-62
2021/12/26 06:15:59;;;;;;;13.58;7.62;;;;;;;-0.93;48.07;98907.78;1796254;79;20950;-62
2021/12/26 06:18:25;;;;;;;14.30;8.18;;;;;;;-1.00;48.08;98909.66;1797665;79;20899;-62
2021/12/26 06:20:53;;;;;;;13.40;7.83;;;;;;;-1.01;48.06;98922.34;1747144;79;21107;-58
2021/12/26 06:23:40;;;;;;;12.73;7.28;;;;;;;-1.03;48.15;98924.23;1731475;82;20918;-59
2021/12/26 06:26:26;;;;;;;15.78;7.85;;;;;;;-0.96;48.10;98918.92;1770081;79;21005;-62
2021/12/26 06:28:52;;;;;;;13.62;7.67;;;;;;;-0.91;48.17;98918.95;1774387;79;20938;-63
2021/12/26 06:31:28;;;;;;;;;;;;;;;-0.83;48.08;98917.08;1771805;79;21023;-60
2021/12/26 06:34:14;;;;;;;18.55;8.00;;;;;;;-0.79;48.13;98919.37;1768533;79;21166;-60
2021/12/26 06:36:59;;;;;;;25.32;10.70;;;;;;;-0.70;48.09;98918.68;1738417;82;20999;-59
2021/12/26 06:39:44;;;;;;;30.75;12.75;;;;;;;-0.64;48.12;98920.84;1775978;79;21414;-63
2021/12/26 06:42:31;;;;;;;29.23;14.05;;;;;;;-0.55;48.10;98927.64;1775208;79;20939;-61
2021/12/26 06:45:18;;;;;;;22.42;10.70;;;;;;;-0.29;48.10;98921.30;1779485;79;20912;-62
2021/12/26 06:48:03;;;;;;;15.85;9.18;;;;;;;0.15;47.88;98917.43;1767495;80;21473;-60
2021/12/26 06:50:29;;;;;;;15.18;8.30;;;;;;;0.69;47.64;98924.51;1781734;79;21500;-62
2021/12/26 06:52:55;;;;;;;15.60;8.50;;;;;;;1.16;47.10;98926.30;1778341;79;20911;-61
2021/12/26 06:55:22;;;;;;;14.68;8.83;;;;;;;1.62;46.50;98921.19;1774609;79;22029;-62
2021/12/26 06:57:48;;;;;;;12.73;7.50;;;;;;;2.08;45.94;98918.17;1769075;79;21049;-61
2021/12/26 07:00:16;;;;;;;11.88;7.83;;;;;;;2.58;45.22;98923.84;1740972;80;21190;-60
2021/12/26 07:02:43;;;;;;;18.70;8.63;;;;;;;3.19;44.65;98915.78;1739121;80;21048;-60
2021/12/26 07:05:14;;;;;;;15.72;7.92;;;;;;;3.82;43.44;98915.69;1769228;79;21484;-62
2021/12/26 07:07:45;;;;;;;12.55;8.23;;;;;;;4.33;43.10;98908.19;1776993;79;20927;-63
2021/12/26 07:10:11;;;;;;;12.18;8.50;;;;;;;5.11;42.00;98903.66;1776262;79;21062;-62
2021/12/26 07:12:40;;;;;;;10.03;7.22;;;;;;;5.98;40.87;98906.41;1736283;82;20958;-61
2021/12/26 07:15:20;;;;;;;13.10;7.97;;;;;;;6.92;39.84;98908.52;1778127;79;21524;-62
2021/12/26 07:17:48;;;;;;;12.55;8.08;;;;;;;8.05;38.55;98906.30;1736381;82;21049;-64
2021/12/26 07:20:18;;;;;;;12.58;9.08;;;;;;;9.00;37.17;98901.84;1758443;80;21796;-65
2021/12/26 07:23:00;;;;;;;15.48;9.90;;;;;;;9.56;35.16;98902.82;1756455;79;21470;-61
2021/12/26 07:25:27;;;;;;;15.10;9.35;;;;;;;10.46;34.68;98899.16;1794218;79;21129;-64
2021/12/26 07:27:53;;;;;;;15.55;10.10;;;;;;;11.48;33.20;98899.97;1773385;79;21664;-65
2021/12/26 07:30:38;;;;;;;19.27;10.30;;;;;;;11.94;31.38;98899.11;1786522;79;21018;-64
2021/12/26 07:33:05;;;;;;;21.73;12.78;;;;;;;12.32;30.60;98891.08;1709244;82;21478;-61
2021/12/26 07:35:32;;;;;;;16.30;10.23;;;;;;;12.88;29.36;98891.77;1720052;80;20948;-63
2021/12/26 07:38:00;;;;;;;17.23;9.68;;;;;;;13.28;28.40;98884.26;1730103;82;21172;-62
2021/12/26 07:40:27;;;;;;;10.90;8.50;;;;;;;13.79;28.01;98894.42;1759854;81;21648;-61
2021/12/26 07:42:54;;;;;;;11.50;8.28;;;;;;;14.45;27.16;98888.02;1735137;81;20943;-62
2021/12/26 07:45:40;;;;;;;12.90;7.87;;;;;;;15.01;26.01;98888.78;1745110;81;21445;-63
2021/12/26 07:48:10;;;;;;;12.65;9.00;;;;;;;15.44;25.46;98895.14;1759879;81;20919;-63
2021/12/26 07:50:36;;;;;;;16.15;9.60;;;;;;;15.91;24.82;98894.65;1753535;80;21800;-62
2021/12/26 07:53:22;;;;;;;15.60;9.93;;;;;;;16.11;24.27;98891.81;1755628;80;21034;-63
2021/12/26 07:56:07;;;;;;;13.30;7.53;;;;;;;16.69;23.72;98886.91;1742405;81;20990;-63
2021/12/26 07:58:52;;;;;;;10.90;7.78;;;;;;;17.10;23.24;98900.48;1758983;81;20995;-62
2021/12/26 08:01:37;;;;;;;16.37;10.05;;;;;;;17.60;22.69;98895.70;1739420;81;21018;-61
2021/12/26 08:04:12;;;;;;;18.95;9.88;;;;;;;17.71;21.31;98897.61;1712782;80;21219;-64
2021/12/26 08:06:57;;;;;;;14.75;9.00;;;;;;;17.36;21.83;98903.89;1759694;80;21429;-62
2021/12/26 08:09:23;;;;;;;17.90;8.98;;;;;;;17.39;22.26;98902.09;1759983;81;20998;-63
2021/12/26 08:11:50;;;;;;;16.12;10.05;;;;;;;17.89;21.81;98903.44;1722795;82;20998;-62
2021/12/26 08:14:17;;;;;;;13.22;8.55;;;;;;;18.03;21.28;98900.84;1745906;81;21392;-65
2021/12/26 08:16:44;;;;;;;9.65;7.37;;;;;;;18.41;21.26;98897.17;1743809;80;21157;-65
2021/12/26 08:19:11;;;;;;;8.38;6.45;;;;;;;18.62;20.56;98900.34;1755675;80;20919;-62
2021/12/26 08:21:37;;;;;;;12.65;7.37;;;;;;;18.47;20.61;98898.14;1775111;80;20860;-64
2021/12/26 08:24:05;;;;;;;9.75;7.10;;;;;;;18.61;20.71;98897.38;1793884;78;21389;-64
2021/12/26 08:26:36;;;;;;;11.03;7.75;;;;;;;18.79;20.19;98903.98;1777131;80;21555;-64
2021/12/26 08:29:00;;;;;;;11.73;7.70;;;;;;;18.89;19.97;98909.58;1757883;80;21231;-63
2021/12/26 08:31:28;;;;;;;11.43;7.42;;;;;;;18.97;19.98;98908.69;1759837;80;21029;-61
2021/12/26 08:33:54;;;;;;;12.55;8.93;;;;;;;19.11;19.55;98911.39;1760167;80;21017;-63
2021/12/26 08:36:21;;;;;;;11.80;8.28;;;;;;;19.18;19.40;98915.84;1810620;78;20982;-64
2021/12/26 08:38:48;;;;;;;13.88;9.05;;;;;;;18.99;19.58;98914.66;1813643;79;21409;-62
2021/12/26 08:41:16;;;;;;;12.73;8.50;;;;;;;19.14;19.73;98920.09;1806965;79;21141;-66
2021/12/26 08:43:46;;;;;;;12.95;8.60;;;;;;;19.43;19.41;98919.06;1778835;79;20959;-62
2021/12/26 08:46:12;;;;;;;14.10;8.68;;;;;;;19.69;19.56;98915.26;1807898;78;20934;-65
2021/12/26 08:48:38;;;;;;;8.90;7.17;;;;;;;20.14;18.92;98917.11;1795604;79;21572;-63
2021/12/26 08:51:05;;;;;;;10.53;8.28;;;;;;;20.33;18.76;98919.34;1754586;80;20891;-68
2021/12/26 08:53:31;;;;;;;13.45;10.88;;;;;;;20.48;18.62;98907.97;1743649;81;21206;-64
2021/12/26 08:55:59;;;;;;;20.48;14.53;;;;;;;20.57;18.02;98916.47;1754955;81;20989;-62
2021/12/26 08:58:25;;;;;;;12.93;10.68;;;;;;;20.13;17.85;98915.46;1766521;80;21540;-66
2021/12/26 09:00:55;;;;;;;12.80;9.03;;;;;;;19.57;18.48;98926.64;1754928;80;21011;-68
2021/12/26 09:03:23;;;;;;;10.05;7.60;;;;;;;19.54;18.58;98924.95;1754237;80;21475;-67
2021/12/26 09:05:49;;;;;;;9.95;7.58;;;;;;;19.11;18.32;98915.96;1803737;78;20975;-67
2021/12/26 09:08:15;;;;;;;9.68;7.70;;;;;;;18.44;19.02;98913.39;1805170;78;21403;-68
2021/12/26 09:10:45;;;;;;;10.95;8.80;;;;;;;18.19;19.61;98919.53;1795687;79;20823;-70
2021/12/26 09:13:11;;;;;;;11.15;8.55;;;;;;;18.55;19.55;98909.09;1792693;79;20887;-68
2021/12/26 09:15:39;;;;;;;10.43;9.28;;;;;;;18.79;19.35;98903.98;1802399;78;21407;-67
2021/12/26 09:18:06;;;;;;;10.15;9.08;;;;;;;19.17;19.07;98906.11;1804414;78;21584;-65
2021/12/26 09:20:33;;;;;;;12.05;9.13;;;;;;;19.47;18.98;98904.05;1800244;78;20998;-65
2021/12/26 09:22:59;;;;;;;10.88;8.20;;;;;;;19.70;18.79;98899.37;1791141;79;21611;-67
2021/12/26 09:25:25;;;;;;;9.48;7.67;;;;;;;19.77;18.48;98903.77;1801980;79;21059;-68
2021/12/26 09:27:55;;;;;;;10.48;8.20;;;;;;;19.80;18.21;98901.42;1793602;79;20923;-64
2021/12/26 09:30:27;;;;;;;9.55;7.65;;;;;;;19.96;18.12;98903.84;1795279;79;21506;-69
2021/12/26 09:32:53;;;;;;;9.13;7.47;;;;;;;20.00;18.31;98902.28;1799025;79;21491;-67
2021/12/26 09:35:22;;;;;;;16.37;12.95;;;;;;;20.12;18.13;98901.69;1786111;79;20949;-64
2021/12/26 09:37:49;;;;;;;17.07;13.03;;;;;;;20.29;18.21;98897.95;1803348;79;21033;-64
2021/12/26 09:40:16;;;;;;;14.05;10.48;;;;;;;20.67;17.78;98892.30;1800772;79;20914;-65
2021/12/26 09:42:44;;;;;;;11.88;8.63;;;;;;;21.03;17.62;98891.69;1801031;79;21210;-65
2021/12/26 09:45:10;;;;;;;9.93;8.93;;;;;;;21.31;17.21;98892.05;1793340;79;20927;-72
2021/12/26 09:47:38;;;;;;;8.38;7.53;;;;;;;20.83;17.14;98898.20;1755396;80;20951;-73
2021/12/26 09:50:07;;;;;;;11.28;7.87;;;;;;;20.47;17.52;98898.21;1764599;81;21011;-71
2021/12/26 09:52:33;;;;;;;9.10;7.62;;;;;;;20.54;17.55;98889.95;1739839;80;20934;-65
2021/12/26 09:55:00;;;;;;;10.15;8.18;;;;;;;20.55;17.34;98892.39;1745592;81;21141;-69
2021/12/26 09:57:28;;;;;;;9.33;7.92;;;;;;;20.60;17.16;98895.16;1746324;81;21499;-68
2021/12/26 09:59:55;;;;;;;11.48;8.55;;;;;;;20.01;17.34;98893.95;1742680;81;20946;-64
2021/12/26 10:02:21;;;;;;;11.65;8.20;;;;;;;19.79;17.72;98892.23;1796066;79;21011;-70
2021/12/26 10:04:49;;;;;;;12.37;8.78;;;;;;;19.95;17.63;98892.75;1732596;82;20963;-66
2021/12/26 10:07:21;;;;;;;11.95;10.50;;;;;;;19.67;17.59;98896.33;1737920;82;21155;-64
2021/12/26 10:09:51;;;;;;;13.13;10.28;;;;;;;19.48;17.82;98893.01;1734544;81;21038;-66
2021/12/26 10:12:20;;;;;;;12.90;8.15;;;;;;;19.68;18.04;98893.38;1743599;82;21110;-66
2021/12/26 10:14:51;;;;;;;11.20;8.73;;;;;;;19.88;17.59;98890.75;1736024;82;21509;-67
2021/12/26 10:17:25;;;;;;;9.73;8.43;;;;;;;19.62;17.81;98893.02;1739929;82;20931;-68
2021/12/26 10:19:49;;;;;;;9.33;7.90;;;;;;;19.84;17.99;98898.50;1739602;81;21132;-67
2021/12/26 10:22:19;;;;;;;10.03;7.75;;;;;;;19.77;17.82;98891.10;1739903;82;20860;-65
2021/12/26 10:24:50;;;;;;;9.68;7.87;;;;;;;19.85;17.76;98887.19;1734138;81;21997;-67
2021/12/26 10:27:26;;;;;;;10.08;7.80;;;;;;;20.11;17.92;98887.37;1739014;82;20972;-67
2021/12/26 10:29:56;;;;;;;10.25;7.65;;;;;;;20.28;17.73;98885.50;1740625;82;21022;-67
2021/12/26 10:32:28;;;;;;;11.08;8.65;;;;;;;20.14;17.73;98884.70;1739361;82;23367;-67
2021/12/26 10:35:03;;;;;;;11.70;8.40;;;;;;;19.88;17.61;98890.75;1734122;81;20893;-63
2021/12/26 10:37:37;;;;;;;8.88;7.80;;;;;;;19.27;17.76;98894.99;1740357;81;26439;-64
2021/12/26 10:40:11;;;;;;;10.50;8.60;;;;;;;18.34;18.36;98897.00;1733231;82;21028;-69
2021/12/26 10:42:54;;;;;;;10.40;8.43;;;;;;;17.58;19.17;98893.77;1732895;82;21081;-67
2021/12/26 10:45:26;;;;;;;9.20;7.47;;;;;;;16.94;19.59;98899.77;1738635;82;21137;-65
2021/12/26 10:47:59;;;;;;;13.35;7.60;;;;;;;15.87;20.51;98914.91;1727299;82;20987;-64
2021/12/26 10:50:28;;;;;;;10.68;7.83;;;;;;;15.08;21.14;98913.67;1727508;81;20969;-66
2021/12/26 10:53:02;;;;;;;9.88;7.85;;;;;;;14.22;21.93;98912.52;1734083;82;20943;-67
2021/12/26 10:55:41;;;;;;;10.38;8.00;;;;;;;13.53;22.63;98909.38;1729316;82;20994;-66
2021/12/26 10:58:11;;;;;;;12.63;8.90;;;;;;;12.92;23.32;98907.72;1734191;81;21132;-63
2021/12/26 11:00:43;;;;;;;12.18;9.00;;;;;;;12.18;24.16;98918.16;1736965;82;20888;-65
2021/12/26 11:03:12;;;;;;;10.08;7.28;;;;;;;11.61;24.97;98924.08;1733124;81;21522;-66
2021/12/26 11:05:44;;;;;;;11.40;7.92;;;;;;;11.06;25.54;98922.87;1742637;82;20965;-63
2021/12/26 11:08:17;;;;;;;10.58;8.00;;;;;;;10.62;26.09;98926.58;1723923;82;20951;-64
2021/12/26 11:10:52;;;;;;;11.57;7.83;;;;;;;10.34;26.62;98933.04;1740709;81;21148;-63
2021/12/26 11:13:24;;;;;;;9.98;7.25;;;;;;;9.97;27.08;98935.18;1735823;82;20963;-64
2021/12/26 11:16:00;;;;;;;9.85;7.00;;;;;;;9.65;27.63;98935.43;1736264;82;20943;-65
2021/12/26 11:18:27;;;;;;;9.33;6.55;;;;;;;9.48;28.07;98942.70;1734853;82;21029;-65
2021/12/26 11:21:02;;;;;;;12.75;7.20;;;;;;;9.38;28.28;98942.60;1741005;81;21047;-63
2021/12/26 11:23:33;;;;;;;12.58;8.48;;;;;;;9.19;28.58;98942.55;1736049;81;21088;-62
2021/12/26 11:26:05;;;;;;;11.30;7.12;;;;;;;8.84;28.98;98946.52;1734489;81;20959;-61
2021/12/26 11:28:35;;;;;;;13.08;7.75;;;;;;;8.65;29.37;98944.28;1736605;81;21572;-64
2021/12/26 11:31:11;;;;;;;12.55;7.55;;;;;;;8.41;29.77;98943.84;1734886;81;20952;-65
2021/12/26 11:33:37;;;;;;;13.03;7.05;;;;;;;8.32;30.19;98953.29;1731360;81;21011;-64
2021/12/26 11:36:06;;;;;;;11.73;6.62;;;;;;;8.15;30.32;98951.15;1735497;81;21233;-64
2021/12/26 11:38:33;;;;;;;9.80;6.87;;;;;;;8.01;30.62;98951.33;1732011;81;20991;-65
2021/12/26 11:41:55;;;;;;;11.78;7.50;;;;;;;7.92;30.82;98948.86;1737686;81;20984;-65